Hestand, Kentucky
Current Conditions -  °F | °C
As of 9:35 PM on Sunday 23 Nov 2014 (Local Time) from KGLW Reporting Station
Heavy Rain Heavy Rain  
Wind Chill: 60°   Ceiling: 1200
Heat Index: 60°   Visibility: 7mi
Dew Point: 59°   Wind: 20mph
Humidity: 97%   Direction: 220°SW
Pressure: 29.4"   Gusts: 26mph
Location:  36.65°N, 85.63°W
Report Text: KGLW 240335Z AUTO 22017G23KT 7SM +RA OVC012 16/15 A2940 RMK AO2 P0001 T01550151
Loading
Personal Weather Stations






























Interactive Weather Map New forecast layout! Learn more

10-Day Weather Forecast

Advertisements
Track Severe Weather on mobile